Time;durP1;ratioP1;P1;durP2;ratioP2;P2;SDS_P1;SDS_P2;PMS_P1;PMS_P2;Temp;Humidity;BMP_temperature;BMP_pressure;BME280_temperature;BME280_humidity;BME280_pressure;Samples;Min_cycle;Max_cycle;Signal;HPM_P1;HPM_P2
2022/06/14 00:03:03;;;;;;;;;;;25.60;62.10;;;;;;5006862;28;19968;-85
2022/06/14 00:05:29;;;;;;;;;;;25.50;61.70;;;;;;5008106;28;20313;-85
2022/06/14 00:07:55;;;;;;;;;;;25.60;61.50;;;;;;5009903;28;19913;-85
2022/06/14 00:10:20;;;;;;;;;;;25.50;61.40;;;;;;5006900;28;19913;-85
2022/06/14 00:12:46;;;;;;;;;;;25.50;61.70;;;;;;5004451;28;19914;-86
2022/06/14 00:15:12;;;;;;;;;;;25.50;61.90;;;;;;5008551;28;19944;-85
2022/06/14 00:17:37;;;;;;;;;;;25.50;61.90;;;;;;5006701;28;19910;-85
2022/06/14 00:20:03;;;;;;;;;;;25.40;61.80;;;;;;5010379;28;20297;-85
2022/06/14 00:22:29;;;;;;;;;;;25.40;61.60;;;;;;5006812;28;19928;-86
2022/06/14 00:24:54;;;;;;;;;;;25.40;61.50;;;;;;5007003;28;20386;-86
2022/06/14 00:27:20;;;;;;;;;;;25.40;61.70;;;;;;5006366;28;19924;-86
2022/06/14 00:29:45;;;;;;;;;;;25.40;61.60;;;;;;5007119;28;19917;-86
2022/06/14 00:32:11;;;;;;;;;;;25.30;61.70;;;;;;5009284;28;19906;-86
2022/06/14 00:34:37;;;;;;;;;;;25.30;61.60;;;;;;5023842;28;19909;-86
2022/06/14 00:37:02;;;;;;;;;;;25.30;61.70;;;;;;5006459;28;20034;-86
2022/06/14 00:39:29;;;;;;;;;;;25.30;61.70;;;;;;5006764;28;19921;-85
2022/06/14 00:41:57;;;;;;;;;;;25.20;61.50;;;;;;5007241;28;19933;-85
2022/06/14 00:44:24;;;;;;;;;;;25.20;62.10;;;;;;5008146;28;20003;-85
2022/06/14 00:46:55;;;;;;;;;;;25.20;61.20;;;;;;5007863;28;20265;-86
2022/06/14 00:49:33;;;;;;;;;;;25.20;61.40;;;;;;5006844;28;20243;-85
2022/06/14 00:52:05;;;;;;;;;;;25.10;61.30;;;;;;5005045;28;19958;-85
2022/06/14 00:54:33;;;;;;;;;;;25.10;61.40;;;;;;5009011;28;19909;-86
2022/06/14 00:57:01;;;;;;;;;;;25.10;61.30;;;;;;5013219;28;19919;-86
2022/06/14 00:59:33;;;;;;;;;;;25.10;61.40;;;;;;5013332;28;19917;-85
2022/06/14 01:02:03;;;;;;;;;;;25.10;61.10;;;;;;5012889;28;19905;-86
2022/06/14 01:04:29;;;;;;;;;;;25.10;61.20;;;;;;5012937;28;19921;-86
2022/06/14 01:06:58;;;;;;;;;;;25.10;61.30;;;;;;5013198;28;19909;-86
2022/06/14 01:09:33;;;;;;;;;;;25.10;61.30;;;;;;5012816;28;20048;-86
2022/06/14 01:12:01;;;;;;;;;;;25.00;61.30;;;;;;5013380;28;19943;-87
2022/06/14 01:14:32;;;;;;;;;;;25.00;61.40;;;;;;5012743;28;20411;-86
2022/06/14 01:16:57;;;;;;;;;;;24.90;61.20;;;;;;5012455;28;19906;-86
2022/06/14 01:19:24;;;;;;;;;;;24.90;61.30;;;;;;5013023;28;19967;-86
2022/06/14 01:22:10;;;;;;;;;;;24.90;61.00;;;;;;5012802;28;20301;-86
2022/06/14 01:24:36;;;;;;;;;;;24.90;61.10;;;;;;5012786;28;19914;-86
2022/06/14 01:27:04;;;;;;;;;;;24.90;60.80;;;;;;5013282;28;20281;-85
2022/06/14 01:29:31;;;;;;;;;;;24.90;60.90;;;;;;5013260;28;19916;-85
2022/06/14 01:31:59;;;;;;;;;;;24.90;60.50;;;;;;5012283;28;19905;-86
2022/06/14 01:34:25;;;;;;;;;;;24.80;60.60;;;;;;5013293;28;19913;-86
2022/06/14 01:36:51;;;;;;;;;;;24.80;60.30;;;;;;5013320;28;19988;-86
2022/06/14 01:39:18;;;;;;;;;;;24.80;60.40;;;;;;5015009;28;19996;-87
2022/06/14 01:41:56;;;;;;;;;;;24.80;60.10;;;;;;5017086;28;19958;-87
2022/06/14 01:44:31;;;;;;;;;;;24.80;60.00;;;;;;5016639;28;19905;-86
2022/06/14 01:46:59;;;;;;;;;;;24.80;60.20;;;;;;5016192;28;19913;-86
2022/06/14 01:52:21;;;;;;;;;;;24.70;59.70;;;;;;5016769;28;20321;-86
2022/06/14 01:54:55;;;;;;;;;;;24.70;59.70;;;;;;5016686;28;19909;-86
2022/06/14 01:57:21;;;;;;;;;;;24.70;59.50;;;;;;5016693;28;19909;-87
2022/06/14 01:59:49;;;;;;;;;;;24.70;59.10;;;;;;5016777;28;19996;-86
2022/06/14 02:02:21;;;;;;;;;;;24.70;59.10;;;;;;5016243;28;19972;-87
2022/06/14 02:04:49;;;;;;;;;;;24.60;58.90;;;;;;5013830;28;19913;-85
2022/06/14 02:07:24;;;;;;;;;;;24.60;58.90;;;;;;5016528;28;19909;-85
2022/06/14 02:09:53;;;;;;;;;;;24.60;59.00;;;;;;5016500;28;19909;-86
2022/06/14 02:12:22;;;;;;;;;;;24.60;59.00;;;;;;5016364;28;19936;-86
2022/06/14 02:14:48;;;;;;;;;;;24.50;58.80;;;;;;5016323;28;19972;-85
2022/06/14 02:17:18;;;;;;;;;;;24.50;58.70;;;;;;5015772;28;19909;-86
2022/06/14 02:19:50;;;;;;;;;;;24.40;58.60;;;;;;5015722;28;19996;-87
2022/06/14 02:22:21;;;;;;;;;;;24.40;58.00;;;;;;5016299;28;19917;-85
2022/06/14 02:24:48;;;;;;;;;;;24.40;57.90;;;;;;5015947;28;19921;-86
2022/06/14 02:27:25;;;;;;;;;;;24.40;57.80;;;;;;5015926;28;19967;-86
2022/06/14 02:29:53;;;;;;;;;;;24.40;57.90;;;;;;5016553;28;19972;-86
2022/06/14 02:32:39;;;;;;;;;;;24.40;57.80;;;;;;5016279;28;19920;-87
2022/06/14 02:35:07;;;;;;;;;;;24.30;57.80;;;;;;5015137;28;20365;-86
2022/06/14 02:37:34;;;;;;;;;;;24.30;57.50;;;;;;5017432;28;20358;-86
2022/06/14 02:40:04;;;;;;;;;;;24.40;57.80;;;;;;5015828;28;20252;-86
2022/06/14 02:42:50;;;;;;;;;;;24.30;57.30;;;;;;5015563;28;19909;-86
2022/06/14 02:45:20;;;;;;;;;;;24.30;56.80;;;;;;5015334;28;19924;-86
2022/06/14 02:47:48;;;;;;;;;;;24.30;56.10;;;;;;5016197;28;19909;-86
2022/06/14 02:50:27;;;;;;;;;;;24.30;56.30;;;;;;5014259;28;20365;-86
2022/06/14 02:52:55;;;;;;;;;;;24.30;55.90;;;;;;5013684;28;19944;-86
2022/06/14 02:55:24;;;;;;;;;;;24.30;55.30;;;;;;5015184;28;20393;-86
2022/06/14 02:58:00;;;;;;;;;;;24.30;55.30;;;;;;5015672;28;19913;-85
2022/06/14 03:00:28;;;;;;;;;;;24.30;55.20;;;;;;5009999;28;20329;-85
2022/06/14 03:02:57;;;;;;;;;;;24.20;55.10;;;;;;5015443;28;19916;-85
2022/06/14 03:05:48;;;;;;;;;;;24.20;55.10;;;;;;5015830;28;20381;-86
2022/06/14 03:08:23;;;;;;;;;;;24.20;54.80;;;;;;5010221;28;19905;-85
2022/06/14 03:10:48;;;;;;;;;;;24.20;54.70;;;;;;5012559;28;19905;-86
2022/06/14 03:13:34;;;;;;;;;;;24.20;54.60;;;;;;5015126;28;19909;-86
2022/06/14 03:16:23;;;;;;;;;;;24.20;54.70;;;;;;5007963;28;19916;-85
2022/06/14 03:18:50;;;;;;;;;;;24.20;54.40;;;;;;5015116;28;19956;-85
2022/06/14 03:21:19;;;;;;;;;;;24.10;54.50;;;;;;5015117;28;20382;-86
2022/06/14 03:24:02;;;;;;;;;;;24.10;54.50;;;;;;5015089;28;19917;-86
2022/06/14 03:26:34;;;;;;;;;;;24.10;54.20;;;;;;5014818;28;20297;-86
2022/06/14 03:29:00;;;;;;;;;;;24.10;54.40;;;;;;5014188;28;19910;-85
2022/06/14 03:31:28;;;;;;;;;;;24.10;54.50;;;;;;5015007;28;19956;-85
2022/06/14 03:34:03;;;;;;;;;;;24.10;54.40;;;;;;5015187;28;19948;-85
2022/06/14 03:36:28;;;;;;;;;;;24.00;54.40;;;;;;5014919;28;19918;-86
2022/06/14 03:39:02;;;;;;;;;;;24.00;54.60;;;;;;5014596;28;19913;-86
2022/06/14 03:41:30;;;;;;;;;;;24.00;54.60;;;;;;5015107;28;20464;-87
2022/06/14 03:43:57;;;;;;;;;;;24.00;54.70;;;;;;5013934;28;20420;-86
2022/06/14 03:46:31;;;;;;;;;;;24.00;54.90;;;;;;5014635;28;19921;-85
2022/06/14 03:49:08;;;;;;;;;;;23.90;55.10;;;;;;5014518;28;19910;-85
2022/06/14 03:51:33;;;;;;;;;;;24.00;55.00;;;;;;5014467;28;19909;-85
2022/06/14 03:54:11;;;;;;;;;;;24.00;55.10;;;;;;5014725;28;19920;-86
2022/06/14 03:56:37;;;;;;;;;;;24.00;55.30;;;;;;4999135;28;19909;-87
2022/06/14 03:59:10;;;;;;;;;;;23.80;55.50;;;;;;5013642;28;20283;-87
2022/06/14 04:01:40;;;;;;;;;;;23.90;56.50;;;;;;5014082;28;19935;-86
2022/06/14 04:04:16;;;;;;;;;;;23.90;55.70;;;;;;5013844;28;19910;-86
2022/06/14 04:07:05;;;;;;;;;;;23.80;56.00;;;;;;5014125;28;19995;-85
2022/06/14 04:09:39;;;;;;;;;;;23.80;55.80;;;;;;5013881;28;20408;-87
2022/06/14 04:12:14;;;;;;;;;;;23.80;55.90;;;;;;5014613;28;19959;-85
2022/06/14 04:14:58;;;;;;;;;;;23.80;56.10;;;;;;4999246;28;19916;-86
2022/06/14 04:17:30;;;;;;;;;;;23.80;56.00;;;;;;5014469;28;19996;-84
2022/06/14 04:20:12;;;;;;;;;;;23.80;55.90;;;;;;5013542;28;20350;-85
2022/06/14 04:22:45;;;;;;;;;;;23.80;56.10;;;;;;5014092;28;20378;-86
2022/06/14 04:25:17;;;;;;;;;;;23.70;56.00;;;;;;5014143;28;19963;-85
2022/06/14 04:27:56;;;;;;;;;;;23.70;56.10;;;;;;5013883;28;19909;-85
2022/06/14 04:30:28;;;;;;;;;;;23.80;56.00;;;;;;5013759;28;19909;-87
2022/06/14 04:33:02;;;;;;;;;;;23.70;55.90;;;;;;5013827;28;20297;-86
2022/06/14 04:35:37;;;;;;;;;;;23.70;56.50;;;;;;5014053;28;19916;-86
2022/06/14 04:38:08;;;;;;;;;;;23.70;55.80;;;;;;5008430;28;19952;-87
2022/06/14 04:40:42;;;;;;;;;;;23.60;55.80;;;;;;5015282;28;19916;-86
2022/06/14 04:43:10;;;;;;;;;;;23.70;55.90;;;;;;5013518;28;19914;-86
2022/06/14 04:45:46;;;;;;;;;;;23.70;56.10;;;;;;5013671;28;19921;-85
2022/06/14 04:48:30;;;;;;;;;;;23.70;56.00;;;;;;5013282;28;19949;-86
2022/06/14 04:51:00;;;;;;;;;;;23.80;56.30;;;;;;5013831;28;19909;-85
2022/06/14 04:53:28;;;;;;;;;;;23.70;56.40;;;;;;5013164;28;19905;-86
2022/06/14 04:55:59;;;;;;;;;;;23.80;56.20;;;;;;5012686;28;19909;-86
2022/06/14 04:58:36;;;;;;;;;;;23.80;56.30;;;;;;5013263;28;19913;-86
2022/06/14 05:01:07;;;;;;;;;;;23.80;56.50;;;;;;5013047;28;19964;-86
2022/06/14 05:03:42;;;;;;;;;;;23.70;56.90;;;;;;5013142;28;20020;-86
2022/06/14 05:06:18;;;;;;;;;;;23.80;56.40;;;;;;5012909;28;19917;-86
2022/06/14 05:08:47;;;;;;;;;;;23.70;56.20;;;;;;4998678;28;19915;-86
2022/06/14 05:11:23;;;;;;;;;;;23.80;56.40;;;;;;5012807;28;19959;-86
2022/06/14 05:14:00;;;;;;;;;;;23.80;56.30;;;;;;5010656;28;19909;-86
2022/06/14 05:16:31;;;;;;;;;;;23.80;56.00;;;;;;5013138;28;19949;-87
2022/06/14 05:19:10;;;;;;;;;;;23.70;56.20;;;;;;5013018;28;19960;-83
2022/06/14 05:21:48;;;;;;;;;;;23.80;56.30;;;;;;5012583;28;19921;-78
2022/06/14 05:24:13;;;;;;;;;;;23.80;56.20;;;;;;5013132;28;19909;-83
2022/06/14 05:26:54;;;;;;;;;;;23.90;56.40;;;;;;5013226;28;19916;-82
2022/06/14 05:29:25;;;;;;;;;;;24.00;56.60;;;;;;5013139;28;20321;-80
2022/06/14 05:32:03;;;;;;;;;;;24.10;56.50;;;;;;5010938;28;19905;-82
2022/06/14 05:34:28;;;;;;;;;;;24.20;56.70;;;;;;5013467;28;19917;-83
2022/06/14 05:36:59;;;;;;;;;;;24.00;56.40;;;;;;5012320;28;20027;-83
2022/06/14 05:39:28;;;;;;;;;;;24.00;56.60;;;;;;5012606;28;19913;-82
2022/06/14 05:41:57;;;;;;;;;;;24.00;56.80;;;;;;5012846;28;19932;-82
2022/06/14 05:44:30;;;;;;;;;;;24.00;56.60;;;;;;5012441;28;19906;-81
2022/06/14 05:46:58;;;;;;;;;;;24.00;56.60;;;;;;5012132;28;19917;-82
2022/06/14 05:49:33;;;;;;;;;;;24.00;56.80;;;;;;5012422;28;19914;-83
2022/06/14 05:51:59;;;;;;;;;;;24.00;57.00;;;;;;5013679;28;20294;-84
2022/06/14 05:54:30;;;;;;;;;;;24.10;56.80;;;;;;5012678;28;19996;-86
2022/06/14 05:57:05;;;;;;;;;;;24.10;57.50;;;;;;5012850;28;20004;-81
2022/06/14 05:59:34;;;;;;;;;;;24.10;57.10;;;;;;5011507;28;19923;-84
2022/06/14 06:02:14;;;;;;;;;;;24.20;57.20;;;;;;5012328;28;19906;-80
2022/06/14 06:04:46;;;;;;;;;;;24.30;56.80;;;;;;5012854;28;19917;-79
2022/06/14 06:07:13;;;;;;;;;;;24.30;56.80;;;;;;5012639;28;19916;-79
2022/06/14 06:09:39;;;;;;;;;;;24.30;56.80;;;;;;5012236;28;20447;-79
2022/06/14 06:12:08;;;;;;;;;;;24.30;56.30;;;;;;5012573;28;19996;-77
2022/06/14 06:14:35;;;;;;;;;;;24.30;56.60;;;;;;5012666;28;19953;-76
2022/06/14 06:17:14;;;;;;;;;;;24.30;56.20;;;;;;5012099;28;19937;-75
2022/06/14 06:19:55;;;;;;;;;;;24.40;56.20;;;;;;5012696;28;20378;-73
2022/06/14 06:22:27;;;;;;;;;;;24.40;56.10;;;;;;5012336;28;19964;-74
2022/06/14 06:25:00;;;;;;;;;;;24.40;56.00;;;;;;5012406;28;19980;-75
2022/06/14 06:27:30;;;;;;;;;;;24.40;56.00;;;;;;5015949;28;19909;-73
2022/06/14 06:29:58;;;;;;;;;;;24.50;56.50;;;;;;5016555;28;19909;-74
2022/06/14 06:32:26;;;;;;;;;;;24.50;56.10;;;;;;5015832;28;19909;-75
2022/06/14 06:34:51;;;;;;;;;;;24.50;56.00;;;;;;5015448;28;20074;-75
2022/06/14 06:37:20;;;;;;;;;;;24.50;56.20;;;;;;5015953;28;19913;-75
2022/06/14 06:39:49;;;;;;;;;;;24.50;56.40;;;;;;5016017;28;19909;-74
2022/06/14 06:42:20;;;;;;;;;;;24.50;56.30;;;;;;5015702;28;20333;-74
2022/06/14 06:44:58;;;;;;;;;;;24.60;56.10;;;;;;5015795;28;19917;-75
2022/06/14 06:47:30;;;;;;;;;;;24.60;56.20;;;;;;5015604;28;20389;-74
2022/06/14 06:49:56;;;;;;;;;;;24.60;56.40;;;;;;5015094;28;19912;-74
2022/06/14 06:52:26;;;;;;;;;;;24.70;56.30;;;;;;5015754;28;20305;-74
2022/06/14 06:54:57;;;;;;;;;;;24.70;56.40;;;;;;5015595;28;19988;-74
2022/06/14 06:57:26;;;;;;;;;;;24.70;56.30;;;;;;5015528;28;19910;-75
2022/06/14 06:59:54;;;;;;;;;;;24.80;56.50;;;;;;5015653;28;20411;-74
2022/06/14 07:02:22;;;;;;;;;;;24.90;56.60;;;;;;5015218;28;20297;-74
2022/06/14 07:05:03;;;;;;;;;;;24.90;56.20;;;;;;5012532;28;20004;-74
2022/06/14 07:07:29;;;;;;;;;;;24.90;56.70;;;;;;5015279;28;19909;-75
2022/06/14 07:09:58;;;;;;;;;;;25.00;56.10;;;;;;5015141;28;19925;-74
2022/06/14 07:12:29;;;;;;;;;;;25.00;56.40;;;;;;5015230;28;19910;-75
2022/06/14 07:14:58;;;;;;;;;;;25.10;56.40;;;;;;5015299;28;19936;-74
2022/06/14 07:17:27;;;;;;;;;;;25.10;56.60;;;;;;5015150;28;19968;-75
2022/06/14 07:20:05;;;;;;;;;;;25.10;56.70;;;;;;5014178;28;19905;-75
2022/06/14 07:22:49;;;;;;;;;;;25.20;56.80;;;;;;5014875;28;19917;-74
2022/06/14 07:25:15;;;;;;;;;;;25.20;56.70;;;;;;5014417;28;19932;-74
2022/06/14 07:27:44;;;;;;;;;;;25.30;57.10;;;;;;5015098;28;19918;-74
2022/06/14 07:30:14;;;;;;;;;;;25.30;56.60;;;;;;5014981;28;19913;-74
2022/06/14 07:32:46;;;;;;;;;;;25.30;57.00;;;;;;4999927;28;19921;-74
2022/06/14 07:35:13;;;;;;;;;;;25.40;56.70;;;;;;5014175;28;20412;-75
2022/06/14 07:37:57;;;;;;;;;;;25.40;57.10;;;;;;5014763;28;19906;-75
2022/06/14 07:40:27;;;;;;;;;;;25.40;57.40;;;;;;5013996;28;19925;-75
2022/06/14 07:42:52;;;;;;;;;;;25.40;57.20;;;;;;5014458;28;19913;-75
2022/06/14 07:45:21;;;;;;;;;;;25.50;57.40;;;;;;5015028;28;20008;-74
2022/06/14 07:47:49;;;;;;;;;;;25.50;57.30;;;;;;5014697;28;19909;-74
2022/06/14 07:50:33;;;;;;;;;;;25.60;57.70;;;;;;5013587;28;19905;-75
2022/06/14 07:53:19;;;;;;;;;;;25.60;56.70;;;;;;5013038;28;20389;-75
2022/06/14 07:55:46;;;;;;;;;;;25.60;57.30;;;;;;5014938;28;19940;-77
2022/06/14 07:58:15;;;;;;;;;;;25.70;57.40;;;;;;5013882;28;19941;-76
2022/06/14 08:01:07;;;;;;;;;;;25.70;57.30;;;;;;5013785;28;19909;-75
2022/06/14 08:03:52;;;;;;;;;;;25.80;58.00;;;;;;5013376;28;19963;-74
2022/06/14 08:06:37;;;;;;;;;;;25.80;57.40;;;;;;5014667;28;19940;-75
2022/06/14 08:09:11;;;;;;;;;;;25.90;57.90;;;;;;5006733;28;19910;-78
2022/06/14 08:11:45;;;;;;;;;;;26.00;57.70;;;;;;4998863;28;19913;-75
2022/06/14 08:14:17;;;;;;;;;;;26.00;57.40;;;;;;5009998;28;19909;-76
2022/06/14 08:16:44;;;;;;;;;;;25.90;57.40;;;;;;5014469;28;20370;-76
2022/06/14 08:19:11;;;;;;;;;;;25.90;57.80;;;;;;5013934;28;20362;-76
2022/06/14 08:21:42;;;;;;;;;;;26.00;57.70;;;;;;5014276;28;19983;-76
2022/06/14 08:24:11;;;;;;;;;;;26.10;57.50;;;;;;5013601;28;19910;-75
2022/06/14 08:26:42;;;;;;;;;;;26.20;57.70;;;;;;4998118;28;19913;-76
2022/06/14 08:29:10;;;;;;;;;;;26.20;57.80;;;;;;5008796;28;20047;-76
2022/06/14 08:31:38;;;;;;;;;;;26.10;57.70;;;;;;5013696;28;19910;-75
2022/06/14 08:34:07;;;;;;;;;;;26.20;57.60;;;;;;5013536;28;19906;-76
2022/06/14 08:36:43;;;;;;;;;;;26.30;57.50;;;;;;5013183;28;19910;-76
2022/06/14 08:39:13;;;;;;;;;;;26.30;57.30;;;;;;5014002;28;19937;-76
2022/06/14 08:41:47;;;;;;;;;;;26.40;57.40;;;;;;4998196;28;19916;-76
2022/06/14 08:44:34;;;;;;;;;;;26.40;57.30;;;;;;5012138;28;19956;-76
2022/06/14 08:47:18;;;;;;;;;;;26.40;57.70;;;;;;5011684;28;19921;-76
2022/06/14 08:49:49;;;;;;;;;;;26.60;58.00;;;;;;5013732;28;19909;-76
2022/06/14 08:52:35;;;;;;;;;;;26.60;57.50;;;;;;5014254;28;20370;-76
2022/06/14 08:55:19;;;;;;;;;;;26.60;58.00;;;;;;5012770;28;19916;-76
2022/06/14 08:57:57;;;;;;;;;;;26.60;58.00;;;;;;5013224;28;20396;-76
2022/06/14 09:00:40;;;;;;;;;;;26.70;57.70;;;;;;5013197;28;19920;-77
2022/06/14 09:03:17;;;;;;;;;;;26.70;57.60;;;;;;5013323;28;19912;-76
2022/06/14 09:05:58;;;;;;;;;;;26.80;57.10;;;;;;4998044;28;20545;-77
2022/06/14 09:08:29;;;;;;;;;;;26.90;57.30;;;;;;5013050;28;19921;-77
2022/06/14 09:10:57;;;;;;;;;;;26.90;57.40;;;;;;5012464;28;19909;-76
2022/06/14 09:13:23;;;;;;;;;;;26.90;57.80;;;;;;5012840;28;19906;-83
2022/06/14 09:16:04;;;;;;;;;;;27.00;57.90;;;;;;5014474;28;19957;-76
2022/06/14 09:18:38;;;;;;;;;;;27.10;57.70;;;;;;5013142;28;19906;-76
2022/06/14 09:21:16;;;;;;;;;;;27.20;57.20;;;;;;5013070;28;19918;-76
2022/06/14 09:23:41;;;;;;;;;;;27.30;56.70;;;;;;4997974;28;19972;-76
2022/06/14 09:26:31;;;;;;;;;;;27.40;56.40;;;;;;5012822;28;19914;-76
2022/06/14 09:28:56;;;;;;;;;;;27.40;57.00;;;;;;5010897;28;19925;-77
2022/06/14 09:31:27;;;;;;;;;;;27.50;56.60;;;;;;5013305;28;19909;-76
2022/06/14 09:34:17;;;;;;;;;;;27.60;56.20;;;;;;5004334;28;19920;-77
2022/06/14 09:36:51;;;;;;;;;;;27.50;56.20;;;;;;5005816;28;19959;-77
2022/06/14 09:39:41;;;;;;;;;;;27.40;56.20;;;;;;5006179;28;19958;-77
2022/06/14 09:42:10;;;;;;;;;;;27.50;56.10;;;;;;5008152;28;19913;-76
2022/06/14 09:44:39;;;;;;;;;;;27.60;56.10;;;;;;5006477;28;19927;-77
2022/06/14 09:47:23;;;;;;;;;;;27.70;55.40;;;;;;5005043;28;20369;-76
2022/06/14 09:50:07;;;;;;;;;;;27.80;55.90;;;;;;5006992;28;20666;-76
2022/06/14 09:52:32;;;;;;;;;;;27.70;56.00;;;;;;5005475;28;19913;-76
2022/06/14 09:55:25;;;;;;;;;;;27.80;55.90;;;;;;5003485;28;19913;-77
2022/06/14 09:58:09;;;;;;;;;;;27.80;55.80;;;;;;5005183;28;19936;-76
2022/06/14 10:00:53;;;;;;;;;;;28.00;55.40;;;;;;5007818;28;19913;-77
2022/06/14 10:03:37;;;;;;;;;;;28.10;54.50;;;;;;5009128;28;19968;-76
2022/06/14 10:06:11;;;;;;;;;;;28.00;55.80;;;;;;5009706;28;19921;-76
2022/06/14 10:08:52;;;;;;;;;;;28.00;55.40;;;;;;4993862;28;19920;-76
2022/06/14 10:11:44;;;;;;;;;;;28.10;55.40;;;;;;5024217;28;20390;-77
2022/06/14 10:14:23;;;;;;;;;;;28.20;55.10;;;;;;5007479;28;19971;-77
2022/06/14 10:16:49;;;;;;;;;;;28.10;55.30;;;;;;5007504;28;20115;-77
2022/06/14 10:19:32;;;;;;;;;;;28.40;53.80;;;;;;5008965;28;19913;-76
2022/06/14 10:22:23;;;;;;;;;;;28.40;54.90;;;;;;5008680;28;20367;-77
2022/06/14 10:24:54;;;;;;;;;;;28.40;53.90;;;;;;5009394;28;20024;-77
2022/06/14 10:30:14;;;;;;;;;;;28.40;54.50;;;;;;5009468;28;19920;-77
2022/06/14 10:32:42;;;;;;;;;;;28.30;54.30;;;;;;5006147;28;19918;-77
2022/06/14 10:35:26;;;;;;;;;;;28.40;54.60;;;;;;5012570;28;19916;-77
2022/06/14 10:37:54;;;;;;;;;;;28.60;54.80;;;;;;5010417;28;20015;-77
2022/06/14 10:40:35;;;;;;;;;;;28.80;53.60;;;;;;5007997;28;20274;-76
2022/06/14 10:43:00;;;;;;;;;;;28.60;54.10;;;;;;5008329;28;20583;-77
2022/06/14 10:45:29;;;;;;;;;;;28.70;54.00;;;;;;5009110;28;19921;-77
2022/06/14 10:48:17;;;;;;;;;;;28.70;53.30;;;;;;5006406;28;19909;-78
2022/06/14 10:50:42;;;;;;;;;;;29.00;54.70;;;;;;4995540;28;19945;-76
2022/06/14 10:53:26;;;;;;;;;;;29.00;54.30;;;;;;5013915;28;19949;-78
2022/06/14 10:56:18;;;;;;;;;;;28.80;55.00;;;;;;5012801;28;20318;-77
2022/06/14 10:58:47;;;;;;;;;;;29.10;55.00;;;;;;5011743;28;19916;-76
2022/06/14 11:01:12;;;;;;;;;;;28.90;54.00;;;;;;5011387;28;19952;-78
2022/06/14 11:03:50;;;;;;;;;;;29.00;54.10;;;;;;5011109;28;20320;-77
2022/06/14 11:06:27;;;;;;;;;;;29.10;54.00;;;;;;5011530;28;20396;-78
2022/06/14 11:09:10;;;;;;;;;;;29.20;53.70;;;;;;5010877;28;19909;-79
2022/06/14 11:11:36;;;;;;;;;;;29.20;54.60;;;;;;5010827;28;19922;-78
2022/06/14 11:14:08;;;;;;;;;;;29.30;54.10;;;;;;5014231;28;19912;-79
2022/06/14 11:16:41;;;;;;;;;;;29.20;53.20;;;;;;5011246;28;20392;-78
2022/06/14 11:21:47;;;;;;;;;;;29.20;53.50;;;;;;5010683;28;20333;-78
2022/06/14 11:24:35;;;;;;;;;;;29.40;53.00;;;;;;5010415;28;19909;-78
2022/06/14 11:27:09;;;;;;;;;;;29.50;53.30;;;;;;5010558;28;19967;-78
2022/06/14 11:29:50;;;;;;;;;;;29.80;51.60;;;;;;5015218;28;19909;-78
2022/06/14 11:32:38;;;;;;;;;;;29.70;52.40;;;;;;5011185;28;20417;-78
2022/06/14 11:35:04;;;;;;;;;;;29.70;51.60;;;;;;4972666;28;19941;-87
2022/06/14 11:37:41;;;;;;;;;;;29.60;52.20;;;;;;4973344;28;20378;-85
2022/06/14 11:40:12;;;;;;;;;;;29.50;52.30;;;;;;4973566;28;19947;-84
2022/06/14 11:42:46;;;;;;;;;;;29.70;52.20;;;;;;4973552;28;19918;-81
2022/06/14 11:45:12;;;;;;;;;;;29.50;53.10;;;;;;4973185;28;20041;-78
2022/06/14 11:47:38;;;;;;;;;;;29.60;52.60;;;;;;4970289;28;19915;-83
2022/06/14 11:50:11;;;;;;;;;;;29.80;52.00;;;;;;4971889;28;20469;-80
2022/06/14 11:52:39;;;;;;;;;;;30.10;53.20;;;;;;4968076;28;20017;-79
2022/06/14 11:55:12;;;;;;;;;;;30.20;53.50;;;;;;4968269;28;19934;-80
2022/06/14 11:57:41;;;;;;;;;;;30.20;53.00;;;;;;4967220;28;19921;-80
2022/06/14 12:00:22;;;;;;;;;;;30.40;52.30;;;;;;4968545;28;19935;-79
2022/06/14 12:02:59;;;;;;;;;;;30.50;52.10;;;;;;4968320;28;19949;-79
2022/06/14 12:05:43;;;;;;;;;;;30.40;52.60;;;;;;4966056;28;19918;-79
2022/06/14 12:08:27;;;;;;;;;;;30.40;52.10;;;;;;4953368;28;20371;-80
2022/06/14 12:11:00;;;;;;;;;;;30.40;51.60;;;;;;4966658;28;19914;-78
2022/06/14 12:13:32;;;;;;;;;;;30.40;52.80;;;;;;5006579;28;19916;-79
2022/06/14 12:16:10;;;;;;;;;;;30.40;53.20;;;;;;5006581;28;19945;-79
2022/06/14 12:18:37;;;;;;;;;;;30.40;52.70;;;;;;5006576;28;19914;-79
2022/06/14 12:21:21;;;;;;;;;;;30.60;52.20;;;;;;5006667;28;19921;-79
2022/06/14 12:23:48;;;;;;;;;;;30.80;51.20;;;;;;4992157;28;20270;-79
2022/06/14 12:26:35;;;;;;;;;;;30.60;51.90;;;;;;5009478;28;19959;-78
2022/06/14 12:29:07;;;;;;;;;;;30.60;52.40;;;;;;5009463;28;19935;-79
2022/06/14 12:31:38;;;;;;;;;;;30.80;51.70;;;;;;5006503;28;19916;-78
2022/06/14 12:34:13;;;;;;;;;;;31.10;51.40;;;;;;5006377;28;19917;-78
2022/06/14 12:37:01;;;;;;;;;;;31.10;51.40;;;;;;5006323;28;20003;-78
2022/06/14 12:39:39;;;;;;;;;;;31.10;51.50;;;;;;5006038;28;19910;-78
2022/06/14 12:42:12;;;;;;;;;;;31.00;51.40;;;;;;5006162;28;20000;-79
2022/06/14 12:44:37;;;;;;;;;;;31.00;51.30;;;;;;4991158;28;19990;-78
2022/06/14 12:47:03;;;;;;;;;;;31.00;51.40;;;;;;5008661;28;20645;-79
2022/06/14 12:49:32;;;;;;;;;;;31.20;51.30;;;;;;5005924;28;19955;-78
2022/06/14 12:52:04;;;;;;;;;;;31.30;51.30;;;;;;5005974;28;19914;-79
2022/06/14 12:54:39;;;;;;;;;;;31.50;56.60;;;;;;5005873;28;20323;-79
2022/06/14 12:57:07;;;;;;;;;;;31.30;59.00;;;;;;5006870;28;19917;-79
2022/06/14 12:59:45;;;;;;;;;;;31.20;58.40;;;;;;5008874;28;19913;-78
2022/06/14 13:02:13;;;;;;;;;;;31.10;57.70;;;;;;5008994;28;20400;-77
2022/06/14 13:04:54;;;;;;;;;;;31.20;57.90;;;;;;5009592;28;19988;-78
2022/06/14 13:07:36;;;;;;;;;;;31.00;58.30;;;;;;5004954;28;19918;-79
2022/06/14 13:10:07;;;;;;;;;;;31.10;58.40;;;;;;5009271;28;19909;-78
2022/06/14 13:12:54;;;;;;;;;;;31.10;58.00;;;;;;5013205;28;20429;-78
2022/06/14 13:15:25;;;;;;;;;;;31.00;57.60;;;;;;5013326;28;19913;-79
2022/06/14 13:17:51;;;;;;;;;;;30.80;57.50;;;;;;5013239;28;19910;-78
2022/06/14 13:20:35;;;;;;;;;;;30.90;56.70;;;;;;5011092;28;20035;-85
2022/06/14 13:23:05;;;;;;;;;;;30.90;57.20;;;;;;5011488;28;19913;-76
2022/06/14 13:25:45;;;;;;;;;;;30.90;58.10;;;;;;5009626;28;20368;-77
2022/06/14 13:28:19;;;;;;;;;;;30.90;58.00;;;;;;5008389;28;19917;-77
2022/06/14 13:30:54;;;;;;;;;;;31.00;57.90;;;;;;5008956;28;19937;-78
2022/06/14 13:33:28;;;;;;;;;;;30.90;57.20;;;;;;5008861;28;19913;-77
2022/06/14 13:35:53;;;;;;;;;;;30.80;57.70;;;;;;5012537;28;19905;-77
2022/06/14 13:38:33;;;;;;;;;;;30.80;58.30;;;;;;5012005;28;19917;-77
2022/06/14 13:41:05;;;;;;;;;;;30.90;58.00;;;;;;5011128;28;19914;-77
2022/06/14 13:43:39;;;;;;;;;;;30.80;58.20;;;;;;5012641;28;19909;-79
2022/06/14 13:46:16;;;;;;;;;;;30.90;59.00;;;;;;5013025;28;19917;-79
2022/06/14 13:48:47;;;;;;;;;;;30.70;58.50;;;;;;5012515;28;19911;-80
2022/06/14 13:51:33;;;;;;;;;;;30.70;59.20;;;;;;5013054;28;19968;-89
2022/06/14 13:54:10;;;;;;;;;;;30.50;60.00;;;;;;5016662;28;19936;-82
2022/06/14 13:56:38;;;;;;;;;;;30.40;60.50;;;;;;5015591;28;20359;-85
2022/06/14 13:59:06;;;;;;;;;;;30.40;59.70;;;;;;5015543;28;19944;-86
2022/06/14 14:01:36;;;;;;;;;;;30.30;60.40;;;;;;5016545;28;20366;-85
2022/06/14 14:04:08;;;;;;;;;;;30.30;61.40;;;;;;5016592;28;19910;-87
2022/06/14 14:06:39;;;;;;;;;;;30.30;62.10;;;;;;5015170;28;20352;-85
2022/06/14 14:09:10;;;;;;;;;;;30.20;63.00;;;;;;5016269;28;20342;-85
2022/06/14 14:11:42;;;;;;;;;;;30.10;63.40;;;;;;5016717;28;19909;-86
2022/06/14 14:14:45;;;;;;;;;;;30.10;63.50;;;;;;5011581;28;19909;-86
2022/06/14 14:17:29;;;;;;;;;;;29.80;64.20;;;;;;4954656;29;19970;-85
2022/06/14 14:20:13;;;;;;;;;;;29.70;65.80;;;;;;4954516;29;19913;-84
2022/06/14 14:22:41;;;;;;;;;;;29.60;64.40;;;;;;4955302;28;19918;-87
2022/06/14 14:25:13;;;;;;;;;;;29.60;64.80;;;;;;4955329;28;19925;-86
2022/06/14 14:27:49;;;;;;;;;;;29.70;66.50;;;;;;4955574;28;19997;-86
2022/06/14 14:30:35;;;;;;;;;;;29.60;66.90;;;;;;4955402;28;20391;-85
2022/06/14 14:33:06;;;;;;;;;;;29.60;66.10;;;;;;4955274;28;19919;-85
2022/06/14 14:35:47;;;;;;;;;;;29.60;68.00;;;;;;4955396;28;19910;-86
2022/06/14 14:38:25;;;;;;;;;;;29.40;69.30;;;;;;4953981;28;19906;-85
2022/06/14 14:43:40;;;;;;;;;;;29.40;69.40;;;;;;4955325;28;20335;-85
2022/06/14 14:46:10;;;;;;;;;;;29.40;69.40;;;;;;4953590;28;19950;-87
2022/06/14 14:48:36;;;;;;;;;;;29.40;69.60;;;;;;4986239;28;19917;-87
2022/06/14 14:51:20;;;;;;;;;;;29.50;67.30;;;;;;4995663;28;19909;-85
2022/06/14 14:54:09;;;;;;;;;;;29.60;68.20;;;;;;4981369;28;19909;-85
2022/06/14 14:56:34;;;;;;;;;;;29.60;68.40;;;;;;4995842;28;20297;-82
2022/06/14 14:59:11;;;;;;;;;;;29.50;69.40;;;;;;4995429;28;20001;-84
2022/06/14 15:07:24;;;;;;;;;;;29.50;70.20;;;;;;4995969;28;19925;-82
2022/06/14 15:10:22;;;;;;;;;;;29.50;71.20;;;;;;4995765;28;20007;-81